Impacts METAR Board INFO
IDs:

KMEM - Memphis Intl, TN, US

Updated at: 0721 UTC 16 Dec 2017
Potential Impact None Slight Moderate High
Time15/19Z 15/20Z 15/21Z 15/22Z 15/23Z 16/00Z 16/01Z 16/02Z 16/03Z 16/04Z 16/05Z 16/06Z 16/07Z
VIS10 10 10 10 10 10 10 10 10 10 10 10 10
CIG-- -- -- -- -- -- -- -- -- -- -- -- --
CoverCLRFEWFEWFEWFEWFEWFEWCLRCLRCLRCLRCLRCLR
FltCatVFRVFRVFRVFRVFRVFRVFRVFRVFRVFRVFRVFRVFR
WX--------------------------
WDir2302500200200200200200190200190200200
WSpd7 7 3 9 4 7 6 7 9 9 11 10 11
WGst-- -- -- -- -- -- -- -- -- -- 17 -- --
Raw hourly METARs
KMEM 151854Z 23007KT 10SM CLR 07/M04 A3019 RMK AO2 SLP225 T00721039 $
KMEM 151954Z 25007KT 10SM FEW250 08/M03 A3018 RMK AO2 SLP220 T00781033 $
KMEM 152054Z VRB03KT 10SM FEW250 08/M03 A3018 RMK AO2 SLP219 T00831033 56013 $
KMEM 152154Z 20009KT 10SM FEW250 08/M03 A3017 RMK AO2 SLP219 T00781033 $
KMEM 152254Z 20004KT 10SM FEW250 06/M03 A3018 RMK AO2 SLP222 T00611033 $
KMEM 152354Z 20007KT 10SM FEW250 04/M03 A3017 RMK AO2 SLP219 T00391033 10083 20039 58001 $
KMEM 160054Z 20006KT 10SM FEW250 04/M03 A3019 RMK AO2 SLP226 T00391028 $
KMEM 160154Z 20007KT 10SM CLR 03/M03 A3020 RMK AO2 SLP228 T00331028 $
KMEM 160254Z 19009KT 10SM CLR 04/M03 A3020 RMK AO2 SLP227 T00391028 50008 $
KMEM 160354Z 20009KT 10SM CLR 03/M03 A3020 RMK AO2 SLP226 T00331028 $
KMEM 160454Z 19011G17KT 10SM CLR 03/M03 A3020 RMK AO2 SLP228 T00281028 $
KMEM 160554Z 20010KT 10SM CLR 03/M03 A3020 RMK AO2 SLP228 T00281028 10050 20028 400831022 52001 $
KMEM 160654Z 20011KT 10SM CLR 02/M03 A3021 RMK AO2 SLP229 T00221028 $